sensor_id;sensor_type;location;lat;lon;timestamp;temperature;humidity
46400;DHT22;32104;50.838;4.388;2023-06-05T00:02:23;15.90;99.90
46400;DHT22;32104;50.838;4.388;2023-06-05T00:04:51;15.90;99.90
46400;DHT22;32104;50.838;4.388;2023-06-05T00:07:17;15.80;99.90
46400;DHT22;32104;50.838;4.388;2023-06-05T00:09:43;15.90;99.90
46400;DHT22;32104;50.838;4.388;2023-06-05T00:12:09;16.00;99.90
46400;DHT22;32104;50.838;4.388;2023-06-05T00:14:35;15.80;99.90
46400;DHT22;32104;50.838;4.388;2023-06-05T00:17:02;15.70;99.90
46400;DHT22;32104;50.838;4.388;2023-06-05T00:19:28;15.70;99.90
46400;DHT22;32104;50.838;4.388;2023-06-05T00:21:56;15.80;99.90
46400;DHT22;32104;50.838;4.388;2023-06-05T00:24:22;15.80;99.90
46400;DHT22;32104;50.838;4.388;2023-06-05T00:26:48;15.80;99.90
46400;DHT22;32104;50.838;4.388;2023-06-05T00:29:14;15.60;99.90
46400;DHT22;32104;50.838;4.388;2023-06-05T00:31:40;15.60;99.90
46400;DHT22;32104;50.838;4.388;2023-06-05T00:34:05;15.60;99.90
46400;DHT22;32104;50.838;4.388;2023-06-05T00:36:31;15.60;99.90
46400;DHT22;32104;50.838;4.388;2023-06-05T00:38:58;15.50;99.90
46400;DHT22;32104;50.838;4.388;2023-06-05T00:41:23;15.50;99.90
46400;DHT22;32104;50.838;4.388;2023-06-05T00:43:52;15.40;99.90
46400;DHT22;32104;50.838;4.388;2023-06-05T00:46:19;15.30;99.90
46400;DHT22;32104;50.838;4.388;2023-06-05T06:10:02;14.10;99.90
46400;DHT22;32104;50.838;4.388;2023-06-05T06:12:28;14.20;99.90
46400;DHT22;32104;50.838;4.388;2023-06-05T06:14:54;14.20;99.90
46400;DHT22;32104;50.838;4.388;2023-06-05T06:17:23;14.30;99.90
46400;DHT22;32104;50.838;4.388;2023-06-05T06:19:49;14.50;99.90
46400;DHT22;32104;50.838;4.388;2023-06-05T06:22:15;14.90;99.90
46400;DHT22;32104;50.838;4.388;2023-06-05T06:24:42;15.50;99.90
46400;DHT22;32104;50.838;4.388;2023-06-05T06:27:11;16.00;99.90
46400;DHT22;32104;50.838;4.388;2023-06-05T20:25:34;18.70;99.90
46400;DHT22;32104;50.838;4.388;2023-06-05T20:52:01;18.00;99.90
46400;DHT22;32104;50.838;4.388;2023-06-05T21:22:45;17.70;99.90
46400;DHT22;32104;50.838;4.388;2023-06-05T23:06:40;15.90;99.90
46400;DHT22;32104;50.838;4.388;2023-06-05T23:09:12;15.80;99.90
46400;DHT22;32104;50.838;4.388;2023-06-05T23:19:39;15.70;99.90
46400;DHT22;32104;50.838;4.388;2023-06-05T23:22:13;15.60;99.90
46400;DHT22;32104;50.838;4.388;2023-06-05T23:24:42;15.70;99.90
46400;DHT22;32104;50.838;4.388;2023-06-05T23:27:07;15.50;99.90
46400;DHT22;32104;50.838;4.388;2023-06-05T23:29:34;15.40;99.90
46400;DHT22;32104;50.838;4.388;2023-06-05T23:32:00;15.50;99.90
46400;DHT22;32104;50.838;4.388;2023-06-05T23:34:27;15.50;99.90
46400;DHT22;32104;50.838;4.388;2023-06-05T23:36:53;15.70;99.90
46400;DHT22;32104;50.838;4.388;2023-06-05T23:39:20;15.70;99.90
46400;DHT22;32104;50.838;4.388;2023-06-05T23:41:46;15.80;99.90
46400;DHT22;32104;50.838;4.388;2023-06-05T23:44:15;15.60;99.90
46400;DHT22;32104;50.838;4.388;2023-06-05T23:46:43;15.60;99.90
46400;DHT22;32104;50.838;4.388;2023-06-05T23:49:10;15.50;99.90
46400;DHT22;32104;50.838;4.388;2023-06-05T23:51:35;15.40;99.90
46400;DHT22;32104;50.838;4.388;2023-06-05T23:54:02;15.40;99.90
46400;DHT22;32104;50.838;4.388;2023-06-05T23:56:28;15.30;99.90
46400;DHT22;32104;50.838;4.388;2023-06-05T23:58:54;15.20;99.90
